createdAt,value
2018-06-12T00:00:43.318Z,24.21
2018-06-12T00:01:43.340Z,24.17
2018-06-12T00:02:43.354Z,24.13
2018-06-12T00:03:43.384Z,24.16
2018-06-12T00:04:43.398Z,24.16
2018-06-12T00:05:43.423Z,24.13
2018-06-12T00:06:43.192Z,24.08
2018-06-12T00:07:43.203Z,24.14
2018-06-12T00:08:43.504Z,24.11
2018-06-12T00:09:43.521Z,24.16
2018-06-12T00:10:43.574Z,24.14
2018-06-12T00:11:43.298Z,24.03
2018-06-12T00:12:43.608Z,24.08
2018-06-12T00:13:43.637Z,24.05
2018-06-12T00:14:43.701Z,24.11
2018-06-12T00:15:43.681Z,24.06
2018-06-12T00:16:43.710Z,24.05
2018-06-12T00:17:43.459Z,24.02
2018-06-12T00:18:43.480Z,24.1
2018-06-12T00:19:43.503Z,23.99
2018-06-12T00:20:43.534Z,24.02
2018-06-12T00:21:43.844Z,24.01
2018-06-12T00:22:43.888Z,24.02
2018-06-12T00:23:43.605Z,24.01
2018-06-12T00:24:43.912Z,23.92
2018-06-12T00:25:43.994Z,23.95
2018-06-12T00:26:43.956Z,23.96
2018-06-12T00:27:43.988Z,23.96
2018-06-12T00:28:44.020Z,23.93
2018-06-12T00:29:44.013Z,23.92
2018-06-12T00:30:44.044Z,23.87
2018-06-12T00:31:44.100Z,23.87
2018-06-12T00:32:43.862Z,23.88
2018-06-12T00:33:44.130Z,23.86
2018-06-12T00:34:43.890Z,23.88
2018-06-12T00:35:44.166Z,23.95
2018-06-12T00:36:44.207Z,23.87
2018-06-12T00:37:44.256Z,23.84
2018-06-12T00:38:44.245Z,23.84
2018-06-12T00:39:44.298Z,23.83
2018-06-12T00:40:44.062Z,23.81
2018-06-12T00:41:44.356Z,23.76
2018-06-12T00:42:44.369Z,23.76
2018-06-12T00:43:44.371Z,23.76
2018-06-12T00:44:44.149Z,23.8
2018-06-12T00:45:44.424Z,23.74
2018-06-12T00:46:44.484Z,23.81
2018-06-12T00:47:44.211Z,23.76
2018-06-12T00:48:44.255Z,23.77
2018-06-12T00:49:44.341Z,23.71
2018-06-12T00:50:44.282Z,23.73
2018-06-12T00:51:44.062Z,23.76
2018-06-12T00:52:44.629Z,23.74
2018-06-12T00:53:44.644Z,23.83
2018-06-12T00:54:44.700Z,23.66
2018-06-12T00:55:44.703Z,23.71
2018-06-12T00:56:44.434Z,23.77
2018-06-12T00:57:44.466Z,23.68
2018-06-12T00:58:44.752Z,23.73
2018-06-12T00:59:44.541Z,23.74
2018-06-12T01:00:44.545Z,23.73
2018-06-12T01:01:44.580Z,23.68
2018-06-12T01:02:44.892Z,23.76
2018-06-12T01:03:44.640Z,23.73
2018-06-12T01:04:44.902Z,23.71
2018-06-12T01:05:44.946Z,23.66
2018-06-12T01:06:44.961Z,23.63
2018-06-12T01:07:44.461Z,23.69
2018-06-12T01:08:45.012Z,23.58
2018-06-12T01:09:45.061Z,23.63
2018-06-12T01:10:45.078Z,23.68
2018-06-12T01:11:45.100Z,23.61
2018-06-12T01:12:45.102Z,23.61
2018-06-12T01:13:45.140Z,23.59
2018-06-12T01:14:45.164Z,23.62
2018-06-12T01:15:44.927Z,23.62
2018-06-12T01:16:45.239Z,23.59
2018-06-12T01:17:45.223Z,23.59
2018-06-12T01:18:44.723Z,23.55
2018-06-12T01:19:45.281Z,23.51
2018-06-12T01:20:44.769Z,23.58
2018-06-12T01:21:45.328Z,23.55
2018-06-12T01:22:45.367Z,23.56
2018-06-12T01:23:45.386Z,23.58
2018-06-12T01:24:45.405Z,23.51
2018-06-12T01:25:45.439Z,23.48
2018-06-12T01:26:45.215Z,23.56
2018-06-12T01:27:45.496Z,23.44
2018-06-12T01:28:45.249Z,23.48
2018-06-12T01:29:45.273Z,23.54
2018-06-12T01:30:45.035Z,23.46
2018-06-12T01:31:45.587Z,23.47
2018-06-12T01:32:45.621Z,23.48
2018-06-12T01:33:45.626Z,23.4
2018-06-12T01:34:45.129Z,23.37
2018-06-12T01:35:45.758Z,23.41
2018-06-12T01:36:45.737Z,23.41
2018-06-12T01:37:45.733Z,23.39
2018-06-12T01:38:45.785Z,23.39
2018-06-12T01:39:45.768Z,23.36
2018-06-12T01:40:45.838Z,23.36
2018-06-12T01:41:45.566Z,23.36
2018-06-12T01:42:45.610Z,23.32
2018-06-12T01:43:45.357Z,23.32
2018-06-12T01:44:45.640Z,23.25
2018-06-12T01:45:45.934Z,23.27
2018-06-12T01:46:45.701Z,23.25
2018-06-12T01:47:45.972Z,23.28
2018-06-12T01:48:46.031Z,23.28
2018-06-12T01:49:45.757Z,23.23
2018-06-12T01:50:45.515Z,23.32
2018-06-12T01:51:46.090Z,23.28
2018-06-12T01:52:46.096Z,23.28
2018-06-12T01:53:46.119Z,23.28
2018-06-12T01:54:46.166Z,23.2
2018-06-12T01:55:46.173Z,23.27
2018-06-12T01:56:46.223Z,23.24
2018-06-12T01:57:46.253Z,23.25
2018-06-12T01:58:45.724Z,23.31
2018-06-12T01:59:46.292Z,23.17
2018-06-12T02:00:46.058Z,23.24
2018-06-12T02:01:46.055Z,23.2
2018-06-12T02:02:46.360Z,23.2
2018-06-12T02:03:46.365Z,23.18
2018-06-12T02:04:46.137Z,23.12
2018-06-12T02:05:46.418Z,23.17
2018-06-12T02:06:45.903Z,23.03
2018-06-12T02:07:46.502Z,23.12
2018-06-12T02:08:46.519Z,23.09
2018-06-12T02:09:46.252Z,23.13
2018-06-12T02:10:46.273Z,23.09
2018-06-12T02:11:46.580Z,23.06
2018-06-12T02:12:46.329Z,23.08
2018-06-12T02:13:46.633Z,23.08
2018-06-12T02:14:46.404Z,23.03
2018-06-12T02:15:46.449Z,23.03
2018-06-12T02:16:46.708Z,23.03
2018-06-12T02:17:46.744Z,23.02
2018-06-12T02:18:46.757Z,23.02
2018-06-12T02:19:46.783Z,23.02
2018-06-12T02:20:46.599Z,22.93
2018-06-12T02:21:46.550Z,22.99
2018-06-12T02:22:46.594Z,22.99
2018-06-12T02:23:46.912Z,22.98
2018-06-12T02:24:46.921Z,22.94
2018-06-12T02:25:46.650Z,22.88
2018-06-12T02:26:46.692Z,22.98
2018-06-12T02:27:46.979Z,22.99
2018-06-12T02:28:46.741Z,22.96
2018-06-12T02:29:46.748Z,22.88
2018-06-12T02:30:47.060Z,22.83
2018-06-12T02:31:47.080Z,22.85
2018-06-12T02:32:47.122Z,22.9
2018-06-12T02:33:46.845Z,22.85
2018-06-12T02:34:47.167Z,22.9
2018-06-12T02:35:47.158Z,22.91
2018-06-12T02:36:47.223Z,22.85
2018-06-12T02:37:46.968Z,22.87
2018-06-12T02:38:47.248Z,22.88
2018-06-12T02:39:47.294Z,22.81
2018-06-12T02:40:47.303Z,22.88
2018-06-12T02:41:47.312Z,22.8
2018-06-12T02:42:47.359Z,22.83
2018-06-12T02:43:47.369Z,22.84
2018-06-12T02:44:47.579Z,22.78
2018-06-12T02:45:47.148Z,22.81
2018-06-12T02:46:47.170Z,22.83
2018-06-12T02:47:47.200Z,22.73
2018-06-12T02:48:47.505Z,22.68
2018-06-12T02:49:47.497Z,22.68
2018-06-12T02:50:47.285Z,22.69
2018-06-12T02:51:47.553Z,22.69
2018-06-12T02:52:47.600Z,22.69
2018-06-12T02:53:47.631Z,22.69
2018-06-12T02:54:47.654Z,22.69
2018-06-12T02:55:47.390Z,22.69
2018-06-12T02:56:47.684Z,22.66
2018-06-12T02:57:47.440Z,22.68
2018-06-12T02:58:47.479Z,22.59
2018-06-12T02:59:47.769Z,22.6
2018-06-12T03:00:47.778Z,22.63
2018-06-12T03:01:47.865Z,22.62
2018-06-12T03:02:47.836Z,22.57
2018-06-12T03:03:47.856Z,22.59
2018-06-12T03:04:47.888Z,22.65
2018-06-12T03:05:47.921Z,22.59
2018-06-12T03:06:47.656Z,22.59
2018-06-12T03:07:47.956Z,22.54
2018-06-12T03:08:47.722Z,22.51
2018-06-12T03:09:47.996Z,22.57
2018-06-12T03:10:48.027Z,22.54
2018-06-12T03:11:47.773Z,22.45
2018-06-12T03:12:48.075Z,22.48
2018-06-12T03:13:48.111Z,22.51
2018-06-12T03:14:47.844Z,22.53
2018-06-12T03:15:48.144Z,22.57
2018-06-12T03:16:47.936Z,22.44
2018-06-12T03:17:48.174Z,22.5
2018-06-12T03:18:47.963Z,22.47
2018-06-12T03:19:48.233Z,22.44
2018-06-12T03:20:48.252Z,22.45
2018-06-12T03:21:48.020Z,22.48
2018-06-12T03:22:47.771Z,22.5
2018-06-12T03:23:48.355Z,22.5
2018-06-12T03:24:48.379Z,22.53
2018-06-12T03:25:48.117Z,22.51
2018-06-12T03:26:48.399Z,22.39
2018-06-12T03:27:48.422Z,22.51
2018-06-12T03:28:48.476Z,22.5
2018-06-12T03:29:48.201Z,22.45
2018-06-12T03:30:48.260Z,22.43
2018-06-12T03:31:48.270Z,22.43
2018-06-12T03:32:48.571Z,22.39
2018-06-12T03:33:48.590Z,22.39
2018-06-12T03:34:48.335Z,22.39
2018-06-12T03:35:48.669Z,22.35
2018-06-12T03:36:48.374Z,22.35
2018-06-12T03:37:48.678Z,22.35
2018-06-12T03:38:48.703Z,22.32
2018-06-12T03:39:48.443Z,22.36
2018-06-12T03:40:48.747Z,22.32
2018-06-12T03:41:48.769Z,22.32
2018-06-12T03:42:48.548Z,22.33
2018-06-12T03:43:48.830Z,22.33
2018-06-12T03:44:48.850Z,22.26
2018-06-12T03:45:48.620Z,22.28
2018-06-12T03:46:48.642Z,22.26
2018-06-12T03:47:48.929Z,22.23
2018-06-12T03:48:48.676Z,22.26
2018-06-12T03:49:48.966Z,22.23
2018-06-12T03:50:48.987Z,22.26
2018-06-12T03:51:49.064Z,22.26
2018-06-12T03:52:48.500Z,22.23
2018-06-12T03:53:49.072Z,22.22
2018-06-12T03:54:49.110Z,22.25
2018-06-12T03:55:49.125Z,22.18
2018-06-12T03:56:48.936Z,22.23
2018-06-12T03:57:49.164Z,22.23
2018-06-12T03:58:49.208Z,22.18
2018-06-12T03:59:49.185Z,22.2
2018-06-12T04:00:48.963Z,22.23
2018-06-12T04:01:49.035Z,22.2
2018-06-12T04:02:49.019Z,22.14
2018-06-12T04:03:49.310Z,22.22
2018-06-12T04:04:49.051Z,22.11
2018-06-12T04:05:49.113Z,22.17
2018-06-12T04:06:49.116Z,22.15
2018-06-12T04:07:49.662Z,22.14
2018-06-12T04:08:49.149Z,22.17
2018-06-12T04:09:49.192Z,22.06
2018-06-12T04:10:49.483Z,22.17
2018-06-12T04:11:49.501Z,22.15
2018-06-12T04:12:49.256Z,22.04
2018-06-12T04:13:48.992Z,22
2018-06-12T04:14:49.398Z,22.02
2018-06-12T04:15:49.057Z,21.99
2018-06-12T04:16:49.616Z,22.04
2018-06-12T04:17:49.378Z,21.99
2018-06-12T04:18:49.393Z,21.99
2018-06-12T04:19:49.683Z,21.99
2018-06-12T04:20:49.689Z,22.02
2018-06-12T04:21:49.487Z,21.99
2018-06-12T04:22:49.771Z,21.98
2018-06-12T04:23:49.505Z,22
2018-06-12T04:24:49.808Z,21.98
2018-06-12T04:25:49.848Z,21.99
2018-06-12T04:26:49.840Z,22.02
2018-06-12T04:27:49.880Z,21.99
2018-06-12T04:28:49.923Z,22.04
2018-06-12T04:29:49.655Z,22.04
2018-06-12T04:30:49.947Z,22.02
2018-06-12T04:31:49.969Z,21.99
2018-06-12T04:32:49.990Z,21.96
2018-06-12T04:33:50.031Z,22.02
2018-06-12T04:34:49.789Z,22
2018-06-12T04:35:50.066Z,21.98
2018-06-12T04:36:50.092Z,21.98
2018-06-12T04:37:50.122Z,21.98
2018-06-12T04:38:49.610Z,21.98
2018-06-12T04:39:50.165Z,21.98
2018-06-12T04:40:50.205Z,21.98
2018-06-12T04:41:50.204Z,21.95
2018-06-12T04:42:50.235Z,21.98
2018-06-12T04:43:50.258Z,21.95
2018-06-12T04:44:50.284Z,21.99
2018-06-12T04:45:50.310Z,21.98
2018-06-12T04:46:50.324Z,21.93
2018-06-12T04:47:50.362Z,22
2018-06-12T04:48:50.381Z,21.93
2018-06-12T04:49:50.388Z,21.95
2018-06-12T04:50:50.437Z,21.91
2018-06-12T04:51:50.179Z,21.93
2018-06-12T04:52:50.454Z,21.99
2018-06-12T04:53:50.510Z,21.93
2018-06-12T04:54:50.524Z,21.92
2018-06-12T04:55:50.553Z,21.95
2018-06-12T04:56:50.297Z,21.92
2018-06-12T04:57:50.645Z,21.93
2018-06-12T04:58:50.337Z,21.92
2018-06-12T04:59:50.381Z,21.95
2018-06-12T05:00:50.676Z,21.91
2018-06-12T05:01:50.673Z,21.89
2018-06-12T05:02:50.802Z,21.93
2018-06-12T05:03:50.737Z,21.93
2018-06-12T05:04:50.766Z,21.91
2018-06-12T05:05:50.781Z,21.95
2018-06-12T05:06:50.800Z,21.91
2018-06-12T05:07:50.816Z,21.95
2018-06-12T05:08:50.837Z,21.95
2018-06-12T05:09:50.604Z,21.92
2018-06-12T05:10:50.637Z,21.92
2018-06-12T05:11:50.936Z,21.88
2018-06-12T05:12:50.958Z,21.93
2018-06-12T05:13:50.970Z,21.89
2018-06-12T05:14:50.995Z,21.89
2018-06-12T05:15:51.021Z,21.91
2018-06-12T05:16:50.785Z,21.93
2018-06-12T05:17:51.072Z,21.92
2018-06-12T05:18:50.813Z,21.85
2018-06-12T05:19:51.169Z,21.98
2018-06-12T05:20:51.185Z,21.92
2018-06-12T05:21:51.140Z,21.91
2018-06-12T05:22:51.225Z,21.91
2018-06-12T05:23:51.222Z,21.92
2018-06-12T05:24:50.957Z,21.95
2018-06-12T05:25:50.983Z,21.95
2018-06-12T05:26:51.018Z,21.95
2018-06-12T05:27:51.287Z,21.96
2018-06-12T05:28:51.045Z,21.96
2018-06-12T05:29:51.059Z,21.93
2018-06-12T05:30:51.368Z,21.91
2018-06-12T05:31:51.110Z,21.93
2018-06-12T05:32:51.431Z,21.93
2018-06-12T05:33:51.461Z,21.91
2018-06-12T05:34:51.478Z,21.89
2018-06-12T05:35:51.497Z,21.98
2018-06-12T05:36:51.241Z,21.92
2018-06-12T05:37:51.270Z,21.89
2018-06-12T05:38:51.560Z,21.91
2018-06-12T05:39:51.628Z,21.93
2018-06-12T05:40:51.629Z,21.93
2018-06-12T05:41:51.637Z,21.93
2018-06-12T05:42:51.648Z,21.91
2018-06-12T05:43:51.699Z,21.93
2018-06-12T05:44:51.690Z,21.93
2018-06-12T05:45:51.722Z,21.95
2018-06-12T05:46:51.587Z,21.95
2018-06-12T05:47:51.768Z,21.99
2018-06-12T05:48:51.820Z,21.96
2018-06-12T05:49:51.826Z,21.98
2018-06-12T05:50:51.846Z,21.99
2018-06-12T05:51:51.877Z,21.93
2018-06-12T05:52:51.940Z,21.98
2018-06-12T05:53:51.659Z,22.04
2018-06-12T05:54:51.960Z,22.02
2018-06-12T05:55:52.105Z,21.99
2018-06-12T05:56:52.018Z,22
2018-06-12T05:57:51.736Z,22.04
2018-06-12T05:58:52.056Z,22.02
2018-06-12T05:59:52.042Z,22.02
2018-06-12T06:00:51.792Z,22.08
2018-06-12T06:01:52.108Z,22.06
2018-06-12T06:02:51.580Z,22.13
2018-06-12T06:03:52.207Z,22.14
2018-06-12T06:04:52.193Z,22.14
2018-06-12T06:05:52.175Z,22.2
2018-06-12T06:06:52.210Z,22.18
2018-06-12T06:07:51.979Z,22.17
2018-06-12T06:08:52.065Z,22.18
2018-06-12T06:09:52.310Z,22.2
2018-06-12T06:10:52.034Z,22.2
2018-06-12T06:11:52.320Z,22.28
2018-06-12T06:12:51.818Z,22.28
2018-06-12T06:13:52.170Z,22.26
2018-06-12T06:14:52.428Z,22.28
2018-06-12T06:15:52.455Z,22.33
2018-06-12T06:16:52.478Z,22.41
2018-06-12T06:17:52.495Z,22.35
2018-06-12T06:18:52.534Z,22.36
2018-06-12T06:19:52.544Z,22.35
2018-06-12T06:20:52.267Z,22.39
2018-06-12T06:21:52.607Z,22.41
2018-06-12T06:22:52.743Z,22.38
2018-06-12T06:23:52.617Z,22.43
2018-06-12T06:24:52.388Z,22.47
2018-06-12T06:25:52.668Z,22.43
2018-06-12T06:26:52.682Z,22.5
2018-06-12T06:27:52.720Z,22.51
2018-06-12T06:28:52.840Z,22.53
2018-06-12T06:29:52.594Z,22.41
2018-06-12T06:30:52.530Z,22.5
2018-06-12T06:31:52.565Z,22.6
2018-06-12T06:32:52.578Z,22.5
2018-06-12T06:33:52.593Z,22.47
2018-06-12T06:34:52.908Z,22.6
2018-06-12T06:35:52.942Z,22.5
2018-06-12T06:36:52.925Z,22.54
2018-06-12T06:37:52.971Z,22.48
2018-06-12T06:38:52.978Z,22.51
2018-06-12T06:39:53.019Z,22.5
2018-06-12T06:40:52.748Z,22.5
2018-06-12T06:41:53.060Z,22.5
2018-06-12T06:42:53.104Z,22.5
2018-06-12T06:43:53.108Z,22.48
2018-06-12T06:44:52.865Z,22.5
2018-06-12T06:45:53.135Z,22.6
2018-06-12T06:46:53.181Z,22.6
2018-06-12T06:47:53.185Z,22.55
2018-06-12T06:48:53.262Z,22.57
2018-06-12T06:49:53.289Z,22.55
2018-06-12T06:50:53.272Z,22.6
2018-06-12T06:51:53.298Z,22.63
2018-06-12T06:52:53.318Z,22.7
2018-06-12T06:53:53.066Z,22.66
2018-06-12T06:54:53.095Z,22.66
2018-06-12T06:55:53.415Z,22.68
2018-06-12T06:56:53.170Z,22.69
2018-06-12T06:57:53.465Z,22.69
2018-06-12T06:58:53.734Z,22.72
2018-06-12T06:59:53.504Z,22.66
2018-06-12T07:00:53.501Z,22.7
2018-06-12T07:01:53.290Z,22.69
2018-06-12T07:02:53.548Z,22.69
2018-06-12T07:03:53.585Z,22.73
2018-06-12T07:04:53.607Z,22.69
2018-06-12T07:05:53.646Z,22.8
2018-06-12T07:06:53.655Z,22.83
2018-06-12T07:07:53.411Z,22.78
2018-06-12T07:08:53.749Z,22.83
2018-06-12T07:09:53.711Z,22.76
2018-06-12T07:10:53.473Z,22.88
2018-06-12T07:11:53.496Z,22.83
2018-06-12T07:12:53.784Z,22.87
2018-06-12T07:13:53.923Z,22.81
2018-06-12T07:14:53.935Z,22.85
2018-06-12T07:15:53.607Z,22.88
2018-06-12T07:16:53.903Z,22.93
2018-06-12T07:17:53.642Z,22.93
2018-06-12T07:18:53.961Z,22.96
2018-06-12T07:19:53.976Z,22.98
2018-06-12T07:20:53.715Z,22.91
2018-06-12T07:21:54.007Z,22.94
2018-06-12T07:22:53.772Z,22.94
2018-06-12T07:23:54.111Z,23
2018-06-12T07:24:54.093Z,23
2018-06-12T07:25:54.108Z,23.03
2018-06-12T07:26:53.864Z,23.02
2018-06-12T07:27:54.154Z,23.02
2018-06-12T07:28:53.905Z,23
2018-06-12T07:29:54.210Z,22.99
2018-06-12T07:30:54.231Z,23.06
2018-06-12T07:31:54.281Z,23.1
2018-06-12T07:32:54.302Z,23.13
2018-06-12T07:33:54.082Z,23.17
2018-06-12T07:34:54.328Z,23.09
2018-06-12T07:35:54.063Z,23.05
2018-06-12T07:36:54.405Z,23.21
2018-06-12T07:37:54.538Z,23.24
2018-06-12T07:38:54.154Z,23.21
2018-06-12T07:39:54.442Z,23.21
2018-06-12T07:40:54.483Z,23.25
2018-06-12T07:41:54.213Z,23.21
2018-06-12T07:42:54.275Z,23.21
2018-06-12T07:43:54.545Z,23.21
2018-06-12T07:44:54.577Z,23.24
2018-06-12T07:45:54.336Z,23.2
2018-06-12T07:46:54.633Z,23.28
2018-06-12T07:47:54.637Z,23.31
2018-06-12T07:48:54.389Z,23.31
2018-06-12T07:49:54.691Z,23.36
2018-06-12T07:50:54.725Z,23.37
2018-06-12T07:51:54.728Z,23.4
2018-06-12T07:52:54.771Z,23.5
2018-06-12T07:53:54.807Z,23.47
2018-06-12T07:54:54.807Z,23.56
2018-06-12T07:55:54.831Z,23.54
2018-06-12T07:56:54.875Z,23.58
2018-06-12T07:57:54.629Z,23.62
2018-06-12T07:58:54.917Z,23.69
2018-06-12T07:59:54.677Z,23.74
2018-06-12T08:00:54.840Z,23.71
2018-06-12T08:01:54.992Z,23.77
2018-06-12T08:02:55.020Z,23.66
2018-06-12T08:03:55.044Z,23.77
2018-06-12T08:04:55.055Z,23.69
2018-06-12T08:05:54.829Z,23.74
2018-06-12T08:06:55.162Z,23.69
2018-06-12T08:07:55.138Z,23.71
2018-06-12T08:08:55.164Z,23.78
2018-06-12T08:09:55.190Z,23.78
2018-06-12T08:10:54.938Z,23.77
2018-06-12T08:11:54.958Z,23.78
2018-06-12T08:12:55.597Z,23.78
2018-06-12T08:13:55.281Z,23.87
2018-06-12T08:14:55.290Z,23.81
2018-06-12T08:15:55.322Z,23.73
2018-06-12T08:16:55.357Z,23.73
2018-06-12T08:17:55.438Z,23.76
2018-06-12T08:18:55.549Z,23.76
2018-06-12T08:19:55.440Z,23.77
2018-06-12T08:20:55.467Z,23.8
2018-06-12T08:21:54.937Z,23.8
2018-06-12T08:22:55.492Z,23.91
2018-06-12T08:23:55.743Z,23.88
2018-06-12T08:24:55.591Z,23.87
2018-06-12T08:25:55.582Z,23.96
2018-06-12T08:26:55.631Z,24.08
2018-06-12T08:27:55.616Z,24.06
2018-06-12T08:28:55.642Z,24.17
2018-06-12T08:29:56.135Z,24.23
2018-06-12T08:30:55.731Z,24.28
2018-06-12T08:31:55.739Z,24.38
2018-06-12T08:32:55.749Z,24.38
2018-06-12T08:33:55.521Z,24.42
2018-06-12T08:34:55.822Z,24.51
2018-06-12T08:35:55.834Z,24.54
2018-06-12T08:36:55.853Z,24.54
2018-06-12T08:37:55.880Z,24.68
2018-06-12T08:38:55.905Z,24.69
2018-06-12T08:39:56.095Z,24.68
2018-06-12T08:40:55.801Z,24.77
2018-06-12T08:41:55.449Z,24.73
2018-06-12T08:42:55.729Z,24.86
2018-06-12T08:43:56.030Z,24.86
2018-06-12T08:44:56.076Z,24.95
2018-06-12T08:45:56.107Z,24.95
2018-06-12T08:46:56.081Z,24.98
2018-06-12T08:47:56.137Z,24.96
2018-06-12T08:48:56.156Z,25.1
2018-06-12T08:49:56.198Z,25.08
2018-06-12T08:50:55.942Z,25.21
2018-06-12T08:51:56.235Z,25.13
2018-06-12T08:52:56.261Z,25.14
2018-06-12T08:53:56.004Z,25.23
2018-06-12T08:54:56.029Z,25.26
2018-06-12T08:55:56.340Z,25.32
2018-06-12T08:56:56.071Z,25.38
2018-06-12T08:57:56.124Z,25.33
2018-06-12T08:58:56.415Z,25.46
2018-06-12T08:59:56.448Z,25.47
2018-06-12T09:00:56.463Z,25.44
2018-06-12T09:01:56.500Z,25.58
2018-06-12T09:02:56.502Z,25.54
2018-06-12T09:03:56.271Z,25.58
2018-06-12T09:04:56.567Z,25.55
2018-06-12T09:05:56.323Z,25.54
2018-06-12T09:06:56.354Z,25.63
2018-06-12T09:07:56.390Z,25.68
2018-06-12T09:08:56.650Z,25.68
2018-06-12T09:09:56.428Z,25.7
2018-06-12T09:10:56.721Z,25.75
2018-06-12T09:11:56.465Z,25.75
2018-06-12T09:12:56.775Z,25.72
2018-06-12T09:13:56.791Z,25.84
2018-06-12T09:14:56.812Z,25.81
2018-06-12T09:15:56.848Z,25.9
2018-06-12T09:16:56.589Z,25.88
2018-06-12T09:17:56.913Z,25.9
2018-06-12T09:18:56.641Z,25.88
2018-06-12T09:19:56.947Z,25.93
2018-06-12T09:20:56.429Z,25.98
2018-06-12T09:21:56.997Z,26.02
2018-06-12T09:22:57.009Z,26.07
2018-06-12T09:23:57.051Z,26.06
2018-06-12T09:24:56.802Z,26.13
2018-06-12T09:25:56.813Z,26.19
2018-06-12T09:26:56.847Z,26.23
2018-06-12T09:27:57.130Z,26.19
2018-06-12T09:28:57.218Z,26.22
2018-06-12T09:29:57.192Z,26.23
2018-06-12T09:30:57.225Z,26.29
2018-06-12T09:31:56.972Z,26.31
2018-06-12T09:32:57.303Z,26.38
2018-06-12T09:33:57.315Z,26.4
2018-06-12T09:34:56.785Z,26.43
2018-06-12T09:35:57.356Z,26.43
2018-06-12T09:36:57.437Z,26.53
2018-06-12T09:37:57.421Z,26.55
2018-06-12T09:38:57.166Z,26.6
2018-06-12T09:39:57.457Z,26.59
2018-06-12T09:40:57.218Z,26.7
2018-06-12T09:41:57.255Z,26.65
2018-06-12T09:42:57.275Z,26.78
2018-06-12T09:43:57.297Z,26.73
2018-06-12T09:44:57.624Z,26.81
2018-06-12T09:45:57.628Z,26.84
2018-06-12T09:46:57.385Z,26.88
2018-06-12T09:47:57.143Z,26.85
2018-06-12T09:48:57.733Z,26.9
2018-06-12T09:49:57.464Z,26.9
2018-06-12T09:50:57.764Z,26.95
2018-06-12T09:51:57.787Z,27.03
2018-06-12T09:52:57.532Z,27.07
2018-06-12T09:53:57.852Z,27.02
2018-06-12T09:54:57.861Z,27.11
2018-06-12T09:55:57.902Z,27.17
2018-06-12T09:56:57.934Z,27.18
2018-06-12T09:57:57.956Z,27.22
2018-06-12T09:58:57.997Z,27.25
2018-06-12T09:59:58.001Z,27.32
2018-06-12T10:00:57.759Z,27.27
2018-06-12T10:01:57.779Z,27.44
2018-06-12T10:02:58.072Z,27.36
2018-06-12T10:03:58.099Z,27.37
2018-06-12T10:04:58.168Z,27.51
2018-06-12T10:05:57.874Z,27.55
2018-06-12T10:06:58.178Z,27.49
2018-06-12T10:07:58.386Z,27.67
2018-06-12T10:08:58.252Z,27.64
2018-06-12T10:09:58.044Z,27.7
2018-06-12T10:10:58.315Z,27.83
2018-06-12T10:11:58.339Z,27.92
2018-06-12T10:12:58.084Z,27.87
2018-06-12T10:13:58.367Z,27.92
2018-06-12T10:14:58.389Z,28.01
2018-06-12T10:15:58.158Z,28
2018-06-12T10:16:58.453Z,28.05
2018-06-12T10:17:58.462Z,28.17
2018-06-12T10:18:58.762Z,28.29
2018-06-12T10:19:58.513Z,28.26
2018-06-12T10:20:58.553Z,28.33
2018-06-12T10:21:58.584Z,28.41
2018-06-12T10:22:58.605Z,28.57
2018-06-12T10:23:58.369Z,28.52
2018-06-12T10:24:58.405Z,28.62
2018-06-12T10:25:58.689Z,28.64
2018-06-12T10:26:58.195Z,28.6
2018-06-12T10:27:58.485Z,28.7
2018-06-12T10:28:58.786Z,28.75
2018-06-12T10:29:58.529Z,28.86
2018-06-12T10:30:58.568Z,28.85
2018-06-12T10:31:58.881Z,28.86
2018-06-12T10:32:58.619Z,28.94
2018-06-12T10:33:58.647Z,29.01
2018-06-12T10:34:58.948Z,29.1
2018-06-12T10:35:58.971Z,29.07
2018-06-12T10:36:58.748Z,29.01
2018-06-12T10:37:58.768Z,29.08
2018-06-12T10:38:59.056Z,29.01
2018-06-12T10:39:58.815Z,29.05
2018-06-12T10:40:58.831Z,29.14
2018-06-12T10:41:59.147Z,29.14
2018-06-12T10:42:59.172Z,29.12
2018-06-12T10:43:59.194Z,29.29
2018-06-12T10:44:59.222Z,29.31
2018-06-12T10:45:59.247Z,29.26
2018-06-12T10:46:59.276Z,29.29
2018-06-12T10:47:59.307Z,29.32
2018-06-12T10:48:59.065Z,29.34
2018-06-12T10:49:59.416Z,29.39
2018-06-12T10:50:59.121Z,29.44
2018-06-12T10:51:59.143Z,29.51
2018-06-12T10:52:59.211Z,29.51
2018-06-12T10:53:59.477Z,29.6
2018-06-12T10:54:58.963Z,29.56
2018-06-12T10:55:59.517Z,29.59
2018-06-12T10:56:59.554Z,29.56
2018-06-12T10:57:59.575Z,29.66
2018-06-12T10:58:59.364Z,29.79
2018-06-12T10:59:59.386Z,29.72
2018-06-12T11:00:59.681Z,29.79
2018-06-12T11:01:59.711Z,29.84
2018-06-12T11:02:59.719Z,29.93
2018-06-12T11:03:59.739Z,29.97
2018-06-12T11:04:59.530Z,30.09
2018-06-12T11:05:59.812Z,30.05
2018-06-12T11:06:59.825Z,30.13
2018-06-12T11:07:59.867Z,30.23
2018-06-12T11:08:59.895Z,30.19
2018-06-12T11:09:59.639Z,30.35
2018-06-12T11:11:00.044Z,30.4
2018-06-12T11:12:00.002Z,30.46
2018-06-12T11:13:00.012Z,30.53
2018-06-12T11:14:00.035Z,30.61
2018-06-12T11:14:59.813Z,30.65
2018-06-12T11:15:59.893Z,30.61
2018-06-12T11:17:00.127Z,30.7
2018-06-12T11:18:00.160Z,30.75
2018-06-12T11:19:00.206Z,30.9
2018-06-12T11:19:59.941Z,30.84
2018-06-12T11:21:00.239Z,30.96
2018-06-12T11:22:00.012Z,31.05
2018-06-12T11:23:00.033Z,31.05
2018-06-12T11:23:59.803Z,31.12
2018-06-12T11:25:00.377Z,31.17
2018-06-12T11:26:00.165Z,31.21
2018-06-12T11:27:00.425Z,31.27
2018-06-12T11:28:00.191Z,31.33
2018-06-12T11:29:00.477Z,31.4
2018-06-12T11:30:00.225Z,31.33
2018-06-12T11:31:00.555Z,31.4
2018-06-12T11:32:00.042Z,31.59
2018-06-12T11:33:00.117Z,31.54
2018-06-12T11:34:00.381Z,31.66
2018-06-12T11:35:00.676Z,31.73
2018-06-12T11:36:00.416Z,31.81
2018-06-12T11:37:00.173Z,31.9
2018-06-12T11:38:00.767Z,31.9
2018-06-12T11:39:00.778Z,31.97
2018-06-12T11:40:00.815Z,32
2018-06-12T11:41:00.825Z,32.08
2018-06-12T11:42:00.605Z,32.12
2018-06-12T11:43:00.895Z,32.11
2018-06-12T11:44:00.915Z,32.18
2018-06-12T11:45:00.950Z,32.21
2018-06-12T11:46:00.988Z,32.3
2018-06-12T11:47:00.485Z,32.37
2018-06-12T11:48:00.766Z,32.37
2018-06-12T11:49:01.051Z,32.46
2018-06-12T11:50:01.112Z,32.46
2018-06-12T11:51:01.301Z,32.48
2018-06-12T11:52:00.901Z,32.63
2018-06-12T11:53:01.180Z,32.65
2018-06-12T11:54:00.951Z,32.64
2018-06-12T11:55:00.719Z,32.65
2018-06-12T11:56:01.290Z,32.8
2018-06-12T11:57:00.773Z,32.83
2018-06-12T11:58:01.329Z,32.86
2018-06-12T11:59:01.384Z,32.82
2018-06-12T12:00:01.396Z,32.85
2018-06-12T12:01:01.175Z,32.96
2018-06-12T12:02:01.470Z,32.93
2018-06-12T12:03:01.519Z,33.01
2018-06-12T12:04:00.997Z,32.95
2018-06-12T12:05:01.299Z,33.04
2018-06-12T12:06:01.597Z,33.04
2018-06-12T12:07:01.094Z,32.92
2018-06-12T12:08:01.385Z,32.97
2018-06-12T12:09:01.685Z,33.02
2018-06-12T12:10:01.433Z,33.05
2018-06-12T12:11:01.466Z,32.96
2018-06-12T12:12:01.499Z,32.96
2018-06-12T12:13:01.823Z,33.02
2018-06-12T12:14:01.811Z,33.11
2018-06-12T12:15:01.857Z,33.12
2018-06-12T12:16:01.904Z,33.23
2018-06-12T12:17:02.102Z,33.22
2018-06-12T12:18:01.998Z,33.24
2018-06-12T12:19:02.414Z,33.32
2018-06-12T12:20:02.030Z,33.39
2018-06-12T12:21:02.043Z,33.5
2018-06-12T12:22:02.087Z,33.67
2018-06-12T12:23:01.838Z,33.89
2018-06-12T12:24:02.143Z,33.99
2018-06-12T12:25:01.900Z,34.1
2018-06-12T12:26:02.204Z,34.2
2018-06-12T12:27:02.283Z,34.32
2018-06-12T12:28:02.246Z,34.45
2018-06-12T12:29:02.277Z,34.54
2018-06-12T12:30:02.055Z,34.6
2018-06-12T12:31:02.385Z,34.75
2018-06-12T12:32:02.463Z,34.61
2018-06-12T12:33:02.458Z,34.66
2018-06-12T12:34:02.454Z,34.7
2018-06-12T12:35:02.226Z,34.8
2018-06-12T12:36:02.267Z,34.7
2018-06-12T12:37:02.617Z,34.66
2018-06-12T12:38:02.579Z,34.64
2018-06-12T12:39:02.613Z,34.67
2018-06-12T12:40:02.373Z,34.73
2018-06-12T12:41:02.675Z,34.64
2018-06-12T12:42:02.722Z,34.74
2018-06-12T12:43:02.465Z,34.71
2018-06-12T12:44:02.519Z,34.74
2018-06-12T12:45:02.800Z,34.74
2018-06-12T12:46:02.835Z,34.66
2018-06-12T12:47:02.936Z,34.7
2018-06-12T12:48:02.624Z,34.71
2018-06-12T12:49:02.937Z,34.7
2018-06-12T12:50:02.730Z,34.66
2018-06-12T12:51:02.980Z,34.61
2018-06-12T12:52:03.035Z,34.64
2018-06-12T12:53:02.556Z,34.74
2018-06-12T12:54:03.088Z,34.77
2018-06-12T12:55:03.152Z,34.77
2018-06-12T12:56:02.887Z,34.78
2018-06-12T12:57:02.984Z,34.8